Time;durP1;ratioP1;P1;durP2;ratioP2;P2;SDS_P1;SDS_P2;PMS_P1;PMS_P2;Temp;Humidity;BMP_temperature;BMP_pressure;BME280_temperature;BME280_humidity;BME280_pressure;Samples;Min_cycle;Max_cycle;Signal;HPM_P1;HPM_P2
2022/03/11 00:01:58;;;;;;;9.95;5.03;;;;;;;-2.62;45.44;101895.06;5114310;28;20051;-68
2022/03/11 00:04:39;;;;;;;10.38;4.75;;;;;;;-2.60;45.68;101896.88;5115275;28;20135;-69
2022/03/11 00:07:08;;;;;;;12.88;5.43;;;;;;;-2.59;45.10;101908.19;5114792;28;20122;-69
2022/03/11 00:09:37;;;;;;;9.52;4.82;;;;;;;-2.62;45.69;101897.66;5115482;28;20047;-68
2022/03/11 00:12:07;;;;;;;9.02;5.03;;;;;;;-2.71;45.84;101905.31;5115138;28;20435;-69
2022/03/11 00:14:36;;;;;;;11.18;5.50;;;;;;;-2.74;45.84;101908.75;5115399;28;20043;-69
2022/03/11 00:17:05;;;;;;;11.63;5.65;;;;;;;-2.75;45.68;101900.91;5114966;28;20142;-69
2022/03/11 00:19:34;;;;;;;10.57;5.22;;;;;;;-2.67;45.82;101900.22;5113668;28;20065;-68
2022/03/11 00:22:04;;;;;;;9.00;4.45;;;;;;;-2.75;46.00;101899.16;5114868;28;20048;-68
2022/03/11 00:24:33;;;;;;;10.07;5.32;;;;;;;-2.81;46.46;101900.75;5113718;28;20055;-68
2022/03/11 00:27:04;;;;;;;9.02;5.28;;;;;;;-2.77;46.58;101898.25;5114526;28;20065;-73
2022/03/11 00:29:32;;;;;;;11.50;5.38;;;;;;;-2.91;46.47;101895.34;5115135;28;20076;-69
2022/03/11 00:32:00;;;;;;;10.13;5.13;;;;;;;-3.04;47.22;101895.06;5114558;28;20048;-76
2022/03/11 00:34:29;;;;;;;9.77;4.90;;;;;;;-3.02;47.29;101898.59;5113938;28;20374;-69
2022/03/11 00:36:58;;;;;;;10.25;5.03;;;;;;;-3.18;47.44;101905.22;5113717;28;20051;-68
2022/03/11 00:39:28;;;;;;;10.40;4.88;;;;;;;-2.95;46.99;101898.75;5114700;28;20437;-68
2022/03/11 00:41:56;;;;;;;11.68;5.30;;;;;;;-3.18;47.25;101900.00;5114869;28;20070;-69
2022/03/11 00:44:25;;;;;;;9.00;4.80;;;;;;;-3.11;47.38;101895.78;5114147;28;20066;-69
2022/03/11 00:46:53;;;;;;;10.52;5.03;;;;;;;-3.28;47.98;101898.00;5114578;28;20043;-68
2022/03/11 00:49:22;;;;;;;10.40;5.13;;;;;;;-3.11;47.35;101901.88;5113089;28;20047;-68
2022/03/11 00:51:50;;;;;;;12.48;5.75;;;;;;;-3.19;47.62;101895.59;5114403;28;20063;-69
2022/03/11 00:54:18;;;;;;;10.13;5.47;;;;;;;-3.29;48.05;101891.03;5112583;28;20044;-69
2022/03/11 00:56:51;;;;;;;8.40;4.70;;;;;;;-3.27;48.16;101894.56;5114618;28;20097;-69
2022/03/11 00:59:19;;;;;;;9.40;5.13;;;;;;;-3.30;48.38;101887.53;5114118;28;20036;-68
2022/03/11 01:01:47;;;;;;;9.18;4.95;;;;;;;-3.32;48.22;101886.63;5114075;28;20077;-68
2022/03/11 01:04:16;;;;;;;8.55;5.07;;;;;;;-3.25;47.80;101892.88;5112607;28;20134;-68
2022/03/11 01:06:44;;;;;;;9.77;4.78;;;;;;;-3.18;47.50;101890.44;5112826;28;20126;-68
2022/03/11 01:09:13;;;;;;;9.18;5.32;;;;;;;-3.14;46.93;101896.59;5113964;28;20039;-69
2022/03/11 01:11:43;;;;;;;10.85;5.10;;;;;;;-3.22;47.58;101887.72;5114572;28;20093;-68
2022/03/11 01:14:13;;;;;;;11.50;5.40;;;;;;;-3.29;48.06;101878.84;5113594;28;20051;-69
2022/03/11 01:16:41;;;;;;;11.77;5.40;;;;;;;-3.25;47.90;101882.44;5113932;28;20385;-68
2022/03/11 01:19:10;;;;;;;9.40;5.03;;;;;;;-3.30;48.09;101886.66;5113802;28;20089;-69
2022/03/11 01:21:38;;;;;;;9.80;5.20;;;;;;;-3.25;47.92;101887.66;5114124;28;20054;-68
2022/03/11 01:24:07;;;;;;;9.55;5.35;;;;;;;-3.33;48.05;101889.22;5113446;28;20032;-69
2022/03/11 01:26:36;;;;;;;10.18;5.45;;;;;;;-3.34;48.33;101888.31;5112334;28;20064;-68
2022/03/11 01:29:04;;;;;;;10.65;5.35;;;;;;;-3.47;48.06;101881.97;5113832;28;20491;-78
2022/03/11 01:31:34;;;;;;;11.15;5.63;;;;;;;-3.47;48.42;101883.69;5114009;28;20039;-71
2022/03/11 01:34:03;;;;;;;11.73;5.43;;;;;;;-3.53;48.76;101887.03;5113797;28;20067;-70
2022/03/11 01:36:31;;;;;;;10.30;4.72;;;;;;;-3.40;48.45;101879.47;5113795;28;20477;-70
2022/03/11 01:38:59;;;;;;;10.55;5.30;;;;;;;-3.54;48.87;101880.03;5113537;28;20055;-70
2022/03/11 01:41:28;;;;;;;9.15;5.15;;;;;;;-3.55;48.83;101878.28;5113143;28;20126;-71
2022/03/11 01:43:59;;;;;;;9.70;5.53;;;;;;;-3.64;49.45;101878.06;5113428;28;20459;-70
2022/03/11 01:46:29;;;;;;;10.30;5.55;;;;;;;-3.63;49.33;101885.06;5111997;28;20463;-69
2022/03/11 01:49:01;;;;;;;12.90;5.38;;;;;;;-3.51;48.67;101885.31;5113691;28;20044;-69
2022/03/11 01:51:32;;;;;;;11.07;5.70;;;;;;;-3.57;48.95;101879.06;5113383;28;20050;-68
2022/03/11 01:54:01;;;;;;;12.63;5.93;;;;;;;-3.63;49.05;101879.84;5113541;28;20042;-68
2022/03/11 01:56:30;;;;;;;10.98;5.55;;;;;;;-3.62;49.04;101878.09;5113314;28;20534;-68
2022/03/11 01:58:58;;;;;;;10.90;5.63;;;;;;;-3.62;49.09;101881.59;5113592;28;20118;-70
2022/03/11 02:01:26;;;;;;;12.35;5.97;;;;;;;-3.66;48.81;101885.00;5113384;28;20047;-72
2022/03/11 02:03:57;;;;;;;12.35;5.75;;;;;;;-3.63;49.13;101879.84;5113522;28;20046;-72
2022/03/11 02:06:27;;;;;;;13.50;6.18;;;;;;;-3.87;49.38;101863.59;5113729;28;20465;-70
2022/03/11 02:08:56;;;;;;;11.45;5.15;;;;;;;-3.78;49.55;101869.03;5117956;28;20046;-69
2022/03/11 02:11:24;;;;;;;12.70;6.07;;;;;;;-3.76;49.44;101867.34;5117369;28;20040;-71
2022/03/11 02:13:55;;;;;;;9.90;5.00;;;;;;;-3.75;49.10;101871.72;5117738;28;20044;-70
2022/03/11 02:16:25;;;;;;;11.07;5.45;;;;;;;-3.85;49.55;101880.19;5117391;28;20047;-70
2022/03/11 02:18:54;;;;;;;11.40;5.35;;;;;;;-3.91;49.67;101883.50;5117679;28;20057;-70
2022/03/11 02:21:23;;;;;;;10.55;5.47;;;;;;;-3.86;49.23;101875.78;5115995;28;20050;-72
2022/03/11 02:23:55;;;;;;;10.55;5.30;;;;;;;-3.83;49.05;101873.25;5117495;28;20036;-71
2022/03/11 02:26:25;;;;;;;12.63;5.82;;;;;;;-4.04;49.85;101882.31;5116988;28;20055;-71
2022/03/11 02:28:55;;;;;;;10.98;5.45;;;;;;;-4.00;49.67;101892.81;5117918;28;20056;-70
2022/03/11 02:31:25;;;;;;;11.10;5.57;;;;;;;-4.07;49.78;101897.84;5117653;28;20362;-71
2022/03/11 02:33:54;;;;;;;11.52;5.90;;;;;;;-3.94;49.45;101879.94;5117454;28;20477;-70
2022/03/11 02:36:22;;;;;;;11.48;5.03;;;;;;;-4.00;49.60;101875.44;5116945;28;20039;-71
2022/03/11 02:38:51;;;;;;;11.77;5.82;;;;;;;-4.00;49.91;101882.38;5117142;28;20043;-71
2022/03/11 02:41:21;;;;;;;10.57;5.93;;;;;;;-3.93;49.66;101881.72;5116788;28;20036;-71
2022/03/11 02:43:49;;;;;;;9.27;5.38;;;;;;;-4.08;50.01;101883.06;5117193;28;20048;-72
2022/03/11 02:46:17;;;;;;;9.75;5.47;;;;;;;-3.93;49.56;101879.09;5116801;28;20047;-71
2022/03/11 02:48:46;;;;;;;12.68;5.50;;;;;;;-4.03;49.82;101878.00;5116910;28;20096;-71
2022/03/11 02:51:14;;;;;;;12.25;5.68;;;;;;;-4.19;50.20;101876.72;5116653;28;20081;-72
2022/03/11 02:53:43;;;;;;;10.15;5.05;;;;;;;-3.98;49.61;101878.09;5116703;28;20043;-69
2022/03/11 02:56:11;;;;;;;9.05;4.97;;;;;;;-4.10;49.84;101879.53;5116654;28;20032;-68
2022/03/11 02:58:42;;;;;;;10.07;5.40;;;;;;;-4.01;49.74;101876.28;5116830;28;20438;-69
2022/03/11 03:01:10;;;;;;;9.57;5.30;;;;;;;-4.14;50.06;101877.72;5116655;28;20507;-77
2022/03/11 03:03:39;;;;;;;9.82;5.30;;;;;;;-4.22;50.18;101863.63;5116699;28;20118;-70
2022/03/11 03:06:08;;;;;;;10.68;5.60;;;;;;;-4.19;50.39;101870.63;5116709;28;20047;-69
2022/03/11 03:08:36;;;;;;;9.88;5.20;;;;;;;-4.13;50.09;101884.69;5116194;28;20043;-69
2022/03/11 03:11:04;;;;;;;10.65;5.22;;;;;;;-4.19;50.31;101889.72;5115453;28;20115;-71
2022/03/11 03:13:33;;;;;;;11.27;5.22;;;;;;;-4.19;50.60;101886.25;5115935;28;20080;-71
2022/03/11 03:16:06;;;;;;;11.20;5.25;;;;;;;-4.10;50.34;101886.50;5116302;28;20055;-71
2022/03/11 03:18:37;;;;;;;10.25;4.82;;;;;;;-4.08;50.22;101879.59;5115998;28;20044;-72
2022/03/11 03:21:05;;;;;;;12.98;5.63;;;;;;;-4.12;50.34;101882.97;5116424;28;20040;-72
2022/03/11 03:23:33;;;;;;;11.45;5.47;;;;;;;-4.13;50.58;101876.00;5115992;28;20039;-71
2022/03/11 03:26:02;;;;;;;10.77;5.07;;;;;;;-4.17;50.57;101892.38;5116169;28;20050;-71
2022/03/11 03:28:30;;;;;;;11.38;5.40;;;;;;;-4.20;50.97;101885.38;5115603;28;20047;-70
2022/03/11 03:30:58;;;;;;;14.10;5.65;;;;;;;-4.13;50.47;101878.59;5115994;28;20118;-70
2022/03/11 03:33:28;;;;;;;11.77;5.45;;;;;;;-4.07;49.87;101870.91;5115824;28;20054;-72
2022/03/11 03:35:56;;;;;;;13.73;5.55;;;;;;;-4.10;50.20;101874.34;5116106;28;20126;-72
2022/03/11 03:38:24;;;;;;;11.88;5.53;;;;;;;-4.11;50.08;101880.41;5115720;28;20043;-72
2022/03/11 03:40:53;;;;;;;10.38;5.55;;;;;;;-4.17;50.46;101874.13;5116092;28;20123;-71
2022/03/11 03:43:21;;;;;;;10.02;5.05;;;;;;;-4.17;50.15;101872.41;5115617;28;20043;-70
2022/03/11 03:45:49;;;;;;;11.35;5.15;;;;;;;-4.28;50.77;101871.25;5115874;28;20089;-70
2022/03/11 03:48:19;;;;;;;10.57;5.63;;;;;;;-4.20;50.38;101880.16;5115575;28;20047;-71
2022/03/11 03:50:49;;;;;;;9.18;5.38;;;;;;;-4.27;50.67;101873.00;5115780;28;20173;-70
2022/03/11 03:53:17;;;;;;;9.30;4.97;;;;;;;-4.37;51.29;101871.00;5115064;28;20063;-70
2022/03/11 03:55:45;;;;;;;13.63;5.63;;;;;;;-4.45;51.35;101878.63;5116109;28;20101;-69
2022/03/11 03:58:13;;;;;;;12.27;5.50;;;;;;;-4.54;51.53;101885.31;5115640;28;20069;-74
2022/03/11 04:00:42;;;;;;;10.07;5.15;;;;;;;-4.54;51.56;101887.91;5115694;28;20040;-69
2022/03/11 04:03:10;;;;;;;12.38;6.50;;;;;;;-4.56;51.81;101890.47;5115504;28;20071;-69
2022/03/11 04:05:39;;;;;;;12.20;5.35;;;;;;;-4.54;51.77;101893.13;5115367;28;20070;-69
2022/03/11 04:08:08;;;;;;;13.93;6.07;;;;;;;-4.57;51.93;101893.03;5115317;28;20050;-69
2022/03/11 04:10:38;;;;;;;12.02;6.10;;;;;;;-4.61;52.20;101892.97;5115241;28;20046;-69
2022/03/11 04:13:07;;;;;;;12.38;5.43;;;;;;;-4.57;51.92;101888.72;5115098;28;20503;-69
2022/03/11 04:15:35;;;;;;;9.77;4.78;;;;;;;-4.59;51.82;101890.41;5114612;28;20075;-68
2022/03/11 04:18:03;;;;;;;12.65;5.28;;;;;;;-4.47;51.38;101895.06;5115431;28;20370;-69
2022/03/11 04:20:32;;;;;;;12.23;6.38;;;;;;;-4.44;51.21;101900.34;5114964;28;20046;-69
2022/03/11 04:23:00;;;;;;;10.88;5.03;;;;;;;-4.43;51.03;101896.91;5115327;28;20469;-68
2022/03/11 04:25:30;;;;;;;11.10;5.60;;;;;;;-4.41;51.07;101897.84;5115143;28;20126;-69
2022/03/11 04:27:58;;;;;;;11.93;5.60;;;;;;;-4.53;51.31;101901.00;5115378;28;20642;-70
2022/03/11 04:30:26;;;;;;;15.18;6.40;;;;;;;-4.57;51.58;101903.47;5113974;28;20399;-71
2022/03/11 04:32:55;;;;;;;12.10;5.57;;;;;;;-4.64;52.02;101897.19;5115391;28;20374;-70
2022/03/11 04:35:23;;;;;;;11.02;5.65;;;;;;;-4.67;52.16;101908.41;5114610;28;20487;-69
2022/03/11 04:37:51;;;;;;;12.00;6.43;;;;;;;-4.67;52.03;101902.31;5114665;28;20044;-69
2022/03/11 04:40:19;;;;;;;11.52;5.50;;;;;;;-4.63;51.91;101909.41;5114717;28;20047;-69
2022/03/11 04:42:49;;;;;;;11.45;5.88;;;;;;;-4.73;52.13;101908.25;5114610;28;20055;-69
2022/03/11 04:45:17;;;;;;;13.32;5.65;;;;;;;-4.69;52.06;101904.88;5114562;28;20040;-77
2022/03/11 04:47:46;;;;;;;10.73;5.28;;;;;;;-4.61;51.74;101908.59;5114244;28;20058;-70
2022/03/11 04:50:14;;;;;;;11.15;5.50;;;;;;;-4.66;51.85;101901.47;5114358;28;20047;-69
2022/03/11 04:52:42;;;;;;;13.68;5.20;;;;;;;-4.70;51.96;101908.34;5114436;28;20036;-71
2022/03/11 04:55:11;;;;;;;12.38;5.40;;;;;;;-4.69;52.12;101912.69;5114949;28;20066;-69
2022/03/11 04:57:40;;;;;;;12.65;5.68;;;;;;;-4.72;52.23;101912.63;5114366;28;20048;-68
2022/03/11 05:00:12;;;;;;;15.20;6.50;;;;;;;-4.69;52.39;101910.09;5114441;28;20465;-70
2022/03/11 05:02:45;;;;;;;11.85;5.55;;;;;;;-4.71;52.32;101906.56;5113727;28;20496;-68
2022/03/11 05:05:14;;;;;;;13.25;5.68;;;;;;;-4.81;52.57;101914.97;5114270;28;20543;-68
2022/03/11 05:07:43;;;;;;;12.68;6.10;;;;;;;-4.78;52.72;101920.25;5114071;28;20069;-68
2022/03/11 05:10:14;;;;;;;13.10;5.95;;;;;;;-4.78;52.60;101922.84;5113960;28;20039;-70
2022/03/11 05:12:43;;;;;;;13.48;5.70;;;;;;;-4.80;52.60;101927.13;5113984;28;20081;-70
2022/03/11 05:15:13;;;;;;;11.55;5.75;;;;;;;-4.70;52.42;101923.06;5114474;28;20067;-69
2022/03/11 05:17:41;;;;;;;14.00;6.30;;;;;;;-4.62;52.17;101927.66;5113616;28;20043;-69
2022/03/11 05:20:16;;;;;;;11.93;5.57;;;;;;;-4.68;52.38;101926.59;5114095;28;20054;-69
2022/03/11 05:22:44;;;;;;;11.75;6.30;;;;;;;-4.66;51.95;101922.31;5114382;28;20047;-70
2022/03/11 05:25:13;;;;;;;13.27;5.95;;;;;;;-4.57;51.82;101929.50;5114364;28;20047;-70
2022/03/11 05:27:41;;;;;;;10.85;5.85;;;;;;;-4.55;51.69;101930.41;5114008;28;20135;-70
2022/03/11 05:30:10;;;;;;;13.48;6.25;;;;;;;-4.55;51.76;101933.03;5114175;28;20043;-69
2022/03/11 05:32:46;;;;;;;10.57;5.57;;;;;;;-4.49;51.41;101931.47;5113806;28;20036;-69
2022/03/11 05:35:15;;;;;;;11.40;5.53;;;;;;;-4.52;51.60;101933.13;5113959;28;20370;-69
2022/03/11 05:37:46;;;;;;;10.43;5.63;;;;;;;-4.35;51.46;101932.72;5113443;28;20043;-69
2022/03/11 05:40:14;;;;;;;12.55;6.57;;;;;;;-4.52;51.99;101938.34;5113548;28;20051;-69
2022/03/11 05:42:42;;;;;;;12.70;5.20;;;;;;;-4.46;51.76;101939.38;5113663;28;20087;-69
2022/03/11 05:45:11;;;;;;;15.75;6.35;;;;;;;-4.49;51.94;101946.22;5113763;28;20067;-69
2022/03/11 05:47:39;;;;;;;11.80;6.00;;;;;;;-4.43;51.42;101943.81;5113521;28;20443;-68
2022/03/11 05:50:10;;;;;;;10.70;4.97;;;;;;;-4.42;51.17;101950.78;5113485;28;20065;-68
2022/03/11 05:52:39;;;;;;;12.18;6.00;;;;;;;-4.39;51.66;101954.34;5113616;28;20039;-68
2022/03/11 05:55:09;;;;;;;15.60;6.30;;;;;;;-4.37;51.24;101951.78;5112071;28;20054;-67
2022/03/11 05:57:40;;;;;;;11.20;6.28;;;;;;;-4.28;51.29;101952.03;5113400;28;20043;-67
2022/03/11 06:00:09;;;;;;;16.98;5.93;;;;;;;-4.28;51.17;101949.41;5113741;28;20039;-69
2022/03/11 06:02:39;;;;;;;12.40;5.22;;;;;;;-4.21;51.08;101961.78;5113404;28;20539;-68
2022/03/11 06:05:10;;;;;;;11.98;6.07;;;;;;;-4.09;51.06;101966.44;5113084;28;20588;-68
2022/03/11 06:07:40;;;;;;;10.77;5.32;;;;;;;-4.00;50.55;101966.69;5113358;28;20473;-69
2022/03/11 06:10:09;;;;;;;13.93;6.28;;;;;;;-3.92;50.50;101965.16;5113591;28;20050;-69
2022/03/11 06:12:40;;;;;;;11.82;5.53;;;;;;;-3.77;49.73;101967.25;5113420;28;20392;-69
2022/03/11 06:15:11;;;;;;;14.40;5.82;;;;;;;-3.84;49.82;101968.84;5113317;28;20039;-68
2022/03/11 06:17:39;;;;;;;14.13;6.18;;;;;;;-3.78;49.89;101969.00;5113350;28;20042;-68
2022/03/11 06:20:12;;;;;;;11.80;5.38;;;;;;;-3.71;49.67;101967.44;5113451;28;20047;-68
2022/03/11 06:22:47;;;;;;;11.02;5.43;;;;;;;-3.54;49.21;101975.69;5113338;28;20039;-67
2022/03/11 06:25:18;;;;;;;14.07;6.65;;;;;;;-3.47;48.39;101975.88;5113645;28;20043;-67
2022/03/11 06:27:47;;;;;;;11.18;5.63;;;;;;;-3.37;48.33;101981.31;5113274;28;20533;-69
2022/03/11 06:30:15;;;;;;;12.93;5.55;;;;;;;-3.35;48.42;101979.63;5112060;28;20071;-68
2022/03/11 06:32:46;;;;;;;11.52;5.47;;;;;;;-3.25;48.44;101976.38;5113074;28;20507;-68
2022/03/11 06:35:16;;;;;;;10.48;5.35;;;;;;;-3.31;48.28;101977.13;5113328;28;20416;-69
2022/03/11 06:37:46;;;;;;;14.73;6.25;;;;;;;-3.22;48.26;101972.09;5112725;28;20031;-70
2022/03/11 06:40:15;;;;;;;13.00;6.00;;;;;;;-3.00;47.58;101970.88;5112272;28;20060;-67
2022/03/11 06:42:45;;;;;;;11.65;5.85;;;;;;;-2.89;47.55;101977.22;5112896;28;20085;-66
2022/03/11 06:45:16;;;;;;;11.52;6.03;;;;;;;-2.80;46.68;101980.88;5113136;28;20092;-67
2022/03/11 06:47:46;;;;;;;11.35;5.97;;;;;;;-2.73;46.92;101977.56;5112582;28;20074;-67
2022/03/11 06:50:17;;;;;;;10.88;5.53;;;;;;;-2.65;46.39;101981.22;5113217;28;20092;-67
2022/03/11 06:52:46;;;;;;;11.00;5.78;;;;;;;-2.79;46.34;101972.22;5113953;28;20046;-68
2022/03/11 06:55:15;;;;;;;10.55;5.20;;;;;;;-2.72;46.33;101981.91;5116667;28;20040;-66
2022/03/11 06:57:44;;;;;;;10.63;5.45;;;;;;;-2.70;46.08;101988.97;5115207;28;20075;-66
2022/03/11 07:00:14;;;;;;;11.63;5.40;;;;;;;-2.70;46.06;101982.84;5117041;28;20075;-66
2022/03/11 07:02:43;;;;;;;11.75;5.57;;;;;;;-2.58;45.78;101983.13;5116554;28;20468;-66
2022/03/11 07:05:12;;;;;;;10.82;5.07;;;;;;;-2.64;45.48;101985.59;5116663;28;20477;-67
2022/03/11 07:07:41;;;;;;;14.68;6.10;;;;;;;-2.53;45.46;101986.69;5116441;28;20048;-67
2022/03/11 07:10:16;;;;;;;13.32;5.82;;;;;;;-2.44;45.52;101986.00;5116739;28;20076;-67
2022/03/11 07:12:44;;;;;;;12.75;5.57;;;;;;;-2.41;45.44;101986.09;5116293;28;20065;-66
2022/03/11 07:15:12;;;;;;;11.50;5.60;;;;;;;-2.35;45.11;101991.41;5116322;28;20040;-67
2022/03/11 07:17:46;;;;;;;11.25;5.88;;;;;;;-2.40;44.88;101991.34;5116253;28;20043;-67
2022/03/11 07:20:14;;;;;;;15.00;5.55;;;;;;;-2.41;45.34;101986.97;5120545;28;20100;-65
2022/03/11 07:22:47;;;;;;;13.05;5.85;;;;;;;-2.41;45.70;101992.19;5115648;28;20040;-66
2022/03/11 07:25:16;;;;;;;;;;;;;;;-2.29;45.61;101988.94;5116837;28;20122;-68
2022/03/11 07:27:45;;;;;;;14.20;6.20;;;;;;;-2.28;45.95;101985.47;5114658;28;19919;-68
2022/03/11 07:30:13;;;;;;;12.63;6.20;;;;;;;-2.18;44.64;101989.16;5116283;28;20042;-68
2022/03/11 07:32:42;;;;;;;11.20;4.85;;;;;;;-2.22;43.41;101995.16;5115983;28;20035;-67
2022/03/11 07:35:12;;;;;;;10.10;5.25;;;;;;;-2.22;43.44;102000.38;5115852;28;20417;-67
2022/03/11 07:37:41;;;;;;;9.65;5.05;;;;;;;-2.14;43.15;101988.34;5115758;28;20097;-71
2022/03/11 07:40:12;;;;;;;10.25;4.63;;;;;;;-2.17;42.87;101983.06;5114636;28;20066;-67
2022/03/11 07:42:43;;;;;;;13.05;5.28;;;;;;;-2.08;43.01;101991.09;5115770;28;20552;-68
2022/03/11 07:45:13;;;;;;;9.55;4.80;;;;;;;-2.00;42.63;101994.72;5115738;28;20045;-67
2022/03/11 07:47:42;;;;;;;9.25;4.57;;;;;;;-1.95;42.11;101987.84;5115734;28;20122;-68
2022/03/11 07:50:11;;;;;;;7.35;3.95;;;;;;;-1.88;42.01;101989.72;5114762;28;20043;-67
2022/03/11 07:52:40;;;;;;;10.95;5.32;;;;;;;-1.71;42.18;101992.66;5115660;28;20044;-68
2022/03/11 07:55:11;;;;;;;8.82;4.82;;;;;;;-1.67;41.91;101994.44;5116176;28;20071;-68
2022/03/11 07:57:40;;;;;;;10.05;4.47;;;;;;;-1.64;40.85;101988.38;5115768;28;20071;-66
2022/03/11 08:00:10;;;;;;;8.90;4.15;;;;;;;-1.59;40.98;101994.59;5115426;28;20048;-68
2022/03/11 08:02:40;;;;;;;10.93;4.57;;;;;;;-1.60;40.26;101991.09;5115820;28;20078;-68
2022/03/11 08:05:14;;;;;;;9.05;4.57;;;;;;;-1.65;40.04;101994.47;5114459;28;20036;-68
2022/03/11 08:07:47;;;;;;;8.20;4.47;;;;;;;-1.60;40.27;101992.81;5115174;28;20047;-67
2022/03/11 08:10:17;;;;;;;10.20;5.03;;;;;;;-1.48;40.29;101998.25;5115419;28;20040;-67
2022/03/11 08:12:45;;;;;;;9.93;3.92;;;;;;;-1.42;39.55;101985.28;5115015;28;20044;-67
2022/03/11 08:15:13;;;;;;;8.52;4.38;;;;;;;-1.42;39.49;101980.06;5114985;28;20061;-67
2022/03/11 08:17:42;;;;;;;8.05;4.43;;;;;;;-1.47;39.83;101981.69;5115331;28;20043;-66
2022/03/11 08:20:11;;;;;;;11.30;4.88;;;;;;;-1.50;40.03;101981.66;5115023;28;20040;-66
2022/03/11 08:22:40;;;;;;;8.75;4.20;;;;;;;-1.44;39.53;101976.53;5114996;28;20051;-68
2022/03/11 08:25:09;;;;;;;8.32;4.32;;;;;;;-1.28;39.31;101975.91;5115656;28;20183;-68
2022/03/11 08:27:41;;;;;;;8.73;4.60;;;;;;;-1.26;39.64;101974.19;5113590;28;20083;-68
2022/03/11 08:30:11;;;;;;;8.80;4.68;;;;;;;-1.18;39.71;101976.94;5115010;28;20044;-67
2022/03/11 08:32:41;;;;;;;11.73;6.35;;;;;;;-0.96;38.77;101965.06;5114922;28;20523;-68
2022/03/11 08:35:13;;;;;;;8.77;4.13;;;;;;;-0.92;38.39;101966.84;5114996;28;20044;-67
2022/03/11 08:37:42;;;;;;;11.82;4.75;;;;;;;-0.83;38.39;101966.09;5114518;28;20050;-68
2022/03/11 08:40:13;;;;;;;11.35;4.90;;;;;;;-0.73;37.93;101965.34;5114835;28;20047;-68
2022/03/11 08:42:44;;;;;;;7.38;4.40;;;;;;;-0.81;37.94;101973.09;5114805;28;20067;-68
2022/03/11 08:45:12;;;;;;;9.15;4.90;;;;;;;-0.73;38.09;101967.97;5114906;28;20040;-68
2022/03/11 08:47:45;;;;;;;7.70;4.00;;;;;;;-0.75;37.54;101965.34;5114687;28;20044;-68
2022/03/11 08:50:13;;;;;;;10.00;4.47;;;;;;;-0.85;37.72;101954.72;5114577;28;20032;-67
2022/03/11 08:52:42;;;;;;;11.00;5.15;;;;;;;-0.95;37.90;101958.94;5114197;28;20043;-68
2022/03/11 08:55:11;;;;;;;10.70;4.72;;;;;;;-1.00;38.46;101956.25;5113378;28;20083;-68
2022/03/11 08:57:40;;;;;;;11.23;5.25;;;;;;;-0.90;38.74;101941.53;5113995;28;20054;-68
2022/03/11 09:00:13;;;;;;;9.98;4.50;;;;;;;-0.83;37.81;101951.25;5114417;28;20044;-68
2022/03/11 09:02:41;;;;;;;9.30;4.85;;;;;;;-0.74;37.99;101940.88;5116775;28;20516;-68
2022/03/11 09:05:11;;;;;;;10.75;5.07;;;;;;;-0.69;38.75;101944.44;5114315;28;20051;-67
2022/03/11 09:07:40;;;;;;;9.10;3.88;;;;;;;-0.54;37.97;101933.28;5112833;28;20040;-69
2022/03/11 09:10:11;;;;;;;9.73;5.00;;;;;;;-0.39;37.58;101943.03;5114085;28;20043;-70
2022/03/11 09:12:40;;;;;;;9.85;4.70;;;;;;;-0.43;37.33;101941.25;5113941;28;20122;-71
2022/03/11 09:15:11;;;;;;;8.80;4.00;;;;;;;-0.55;37.31;101935.88;5114945;28;20048;-67
2022/03/11 09:17:41;;;;;;;10.18;4.93;;;;;;;-0.44;37.47;101929.03;5113629;28;20040;-74
2022/03/11 09:20:10;;;;;;;8.68;4.45;;;;;;;-0.34;37.39;101930.88;5113863;28;20424;-68
2022/03/11 09:22:46;;;;;;;9.68;4.82;;;;;;;-0.30;37.42;101923.03;5114099;28;20122;-68
2022/03/11 09:25:16;;;;;;;9.32;5.28;;;;;;;-0.28;37.04;101930.97;5113478;28;20453;-67
2022/03/11 09:27:45;;;;;;;10.95;4.97;;;;;;;-0.34;37.49;101920.41;5113133;28;20060;-68
2022/03/11 09:30:15;;;;;;;11.68;4.70;;;;;;;-0.23;37.49;101923.13;5113901;28;20054;-69
2022/03/11 09:32:44;;;;;;;9.10;4.63;;;;;;;-0.09;37.03;101919.78;5113872;28;20477;-67
2022/03/11 09:35:13;;;;;;;7.43;4.18;;;;;;;0.02;36.42;101921.66;5113981;28;20455;-67
2022/03/11 09:37:41;;;;;;;10.05;4.15;;;;;;;0.03;36.26;101912.91;5112430;28;20378;-69
2022/03/11 09:40:12;;;;;;;8.95;4.25;;;;;;;0.04;36.36;101918.16;5113768;28;20039;-67
2022/03/11 09:42:40;;;;;;;9.45;4.63;;;;;;;0.00;36.36;101908.53;5112415;28;20047;-68
2022/03/11 09:45:09;;;;;;;9.35;4.25;;;;;;;0.20;35.95;101911.31;5113870;28;20126;-67
2022/03/11 09:47:41;;;;;;;8.30;4.10;;;;;;;0.16;35.90;101913.00;5113864;28;20035;-68
2022/03/11 09:50:10;;;;;;;8.18;4.28;;;;;;;0.33;35.91;101905.28;5113676;28;20522;-67
2022/03/11 09:52:39;;;;;;;9.57;4.28;;;;;;;0.31;35.69;101899.16;5113750;28;20043;-67
2022/03/11 09:55:08;;;;;;;8.60;3.97;;;;;;;0.45;35.04;101900.13;5113242;28;20039;-68
2022/03/11 09:57:38;;;;;;;8.68;4.05;;;;;;;0.44;35.35;101892.25;5113757;28;20088;-68
2022/03/11 10:00:09;;;;;;;8.00;4.35;;;;;;;0.60;34.69;101888.00;5113147;28;20043;-68
2022/03/11 10:02:37;;;;;;;8.90;3.67;;;;;;;0.67;33.34;101895.03;5113402;28;20051;-68
2022/03/11 10:05:07;;;;;;;7.20;3.42;;;;;;;0.57;32.78;101899.34;5113098;28;20047;-67
2022/03/11 10:08:00;;;;;;;7.38;3.33;;;;;;;0.52;32.69;101894.06;5112064;28;20107;-69
2022/03/11 10:10:30;;;;;;;8.05;3.20;;;;;;;0.57;31.79;101894.09;5113592;28;20100;-67
2022/03/11 10:13:08;;;;;;;7.25;3.30;;;;;;;0.54;32.38;101886.19;5113440;28;20468;-68
2022/03/11 10:15:37;;;;;;;6.75;3.33;;;;;;;0.68;32.16;101894.19;5113743;28;20040;-68
2022/03/11 10:18:08;;;;;;;8.90;3.75;;;;;;;0.90;32.77;101896.06;5111852;28;20051;-67
2022/03/11 10:20:38;;;;;;;11.23;3.80;;;;;;;0.93;32.18;101901.31;5113522;28;20474;-68
2022/03/11 10:23:12;;;;;;;7.18;3.30;;;;;;;1.01;32.71;101896.13;5113107;28;20063;-67
2022/03/11 10:25:41;;;;;;;7.10;3.78;;;;;;;1.02;32.33;101893.50;5113397;28;20050;-68
2022/03/11 10:28:11;;;;;;;8.60;3.88;;;;;;;1.08;32.54;101887.41;5115378;28;20092;-69
2022/03/11 10:30:42;;;;;;;7.65;3.58;;;;;;;1.12;31.96;101894.41;5117459;28;20047;-69
2022/03/11 10:33:12;;;;;;;10.02;4.18;;;;;;;0.98;31.97;101886.47;5117521;28;20050;-69
2022/03/11 10:35:47;;;;;;;8.23;3.33;;;;;;;1.17;31.67;101882.19;5117545;28;20620;-69
2022/03/11 10:38:17;;;;;;;7.00;3.50;;;;;;;1.42;31.32;101884.00;5117565;28;20039;-68
2022/03/11 10:40:51;;;;;;;7.25;3.35;;;;;;;1.28;31.20;101876.97;5117581;28;20047;-68
2022/03/11 10:43:21;;;;;;;6.07;3.42;;;;;;;1.37;30.73;101869.13;5117161;28;20040;-68
2022/03/11 10:45:52;;;;;;;8.15;3.20;;;;;;;1.50;30.97;101875.28;5117084;28;20127;-69
2022/03/11 10:48:45;;;;;;;8.77;3.47;;;;;;;1.54;30.13;101867.38;5116963;28;20043;-68
2022/03/11 10:51:26;;;;;;;7.30;3.30;;;;;;;1.53;29.59;101876.16;5116984;28;20097;-67
2022/03/11 10:53:55;;;;;;;7.45;3.00;;;;;;;1.58;30.02;101863.91;5116683;28;20338;-68
2022/03/11 10:56:29;;;;;;;5.72;3.05;;;;;;;1.49;29.52;101863.88;5117054;28;20040;-68
2022/03/11 10:58:58;;;;;;;6.55;3.05;;;;;;;1.41;29.60;101847.19;5115527;28;20082;-69
2022/03/11 11:01:36;;;;;;;6.75;3.35;;;;;;;1.54;29.95;101851.59;5116821;28;20412;-68
2022/03/11 11:04:07;;;;;;;6.65;2.80;;;;;;;1.51;29.41;101856.88;5116358;28;20123;-67
2022/03/11 11:06:38;;;;;;;7.22;3.45;;;;;;;1.61;29.66;101850.75;5116826;27;20043;-68
2022/03/11 11:09:09;;;;;;;5.47;3.20;;;;;;;1.56;29.97;101844.63;5116931;28;20040;-68
2022/03/11 11:11:38;;;;;;;6.18;3.03;;;;;;;1.59;29.33;101836.72;5116620;28;20473;-68
2022/03/11 11:14:08;;;;;;;6.45;3.60;;;;;;;1.53;29.33;101820.91;5116076;28;20096;-68
2022/03/11 11:16:40;;;;;;;6.15;3.10;;;;;;;1.79;29.19;101827.97;5116786;28;20039;-67
2022/03/11 11:19:11;;;;;;;5.82;3.30;;;;;;;1.81;29.44;101823.59;5116278;28;20096;-69
2022/03/11 11:21:42;;;;;;;7.18;3.70;;;;;;;1.82;29.32;101818.31;5116898;28;20047;-68
2022/03/11 11:24:14;;;;;;;10.05;4.38;;;;;;;1.82;29.86;101818.31;5116501;28;20051;-67
2022/03/11 11:26:46;;;;;;;7.60;3.80;;;;;;;1.84;29.70;101813.09;5116183;28;20079;-68
2022/03/11 11:29:17;;;;;;;8.57;3.85;;;;;;;1.87;30.35;101813.97;5116354;28;20425;-68
2022/03/11 11:31:47;;;;;;;7.50;3.70;;;;;;;2.06;29.20;101813.97;5116055;28;20040;-67
2022/03/11 11:34:26;;;;;;;7.35;3.80;;;;;;;2.13;29.25;101813.09;5116292;28;20039;-67